MSSS/SAL METAR and TAF weather

Enter ICAO airport designator
Station Type Date Time Source
MSSS METAR 2024/06/13 20:50 UTC NOAA

MSSS 132050Z 19009KT 9999 4000N HZ SCT017 SCT040CB 27/23 Q1013 A2992


Station Type Date Time Source
MSSS Decoded METAR 2024/06/13 20:50 UTC NOAA

San Salvador / Ilopango, El Salvador (MSSS) 13-42N 089-07W 621M
Jun 13, 2024 - 04:50 PM EDT / 2024.06.13 2050 UTC
Wind: from the S (190 degrees) at 10 MPH (9 KT):0
Visibility: greater than 7 mile(s):0
Sky conditions: partly cloudy
Weather: haze; Cumulonimbus clouds observed
Temperature: 80 F (27 C)
Dew Point: 73 F (23 C)
Relative Humidity: 78%
Pressure (altimeter): 29.92 in. Hg (1013 hPa)
ob: MSSS 132050Z 19009KT 9999 4000N HZ SCT017 SCT040CB 27/23 Q1013 A2992
cycle: 21

Station Type Date Time Source
MSSS TAF 2024/06/13 18:10 UTC NOAA